Aeroclub de GuadalajaraInformación meteorológica

Información de METAR

 

LEMD - Madrid / Barajas
Distancia desde la estación: SO 49km
Actualización: 23/01/2019 23:30
Parcialmente nuboso
Parcialmente nuboso
 Viento del O
Viento: O 13 km/h
Temperatura: 12°C
Rocío: 3°C
Humedad: 54%
Barómetro: 1007 hPa
Nubes: Parcialmente nuboso
Visibilidad: 10 km
Detalle de Nubes: Parcialmente nuboso 1676 m
2019/01/23 22:30 LEMD 232230Z 28007KT 210V310 9999 SCT055 12/03 Q1007 WS R36L NOSIG
LECV - Madrid / Colmenar Viejo
Distancia desde la estación: OSO 47km
Actualización: 23/01/2019 19:00
NO actualizado
Cubierto
Cubierto
 Viento del SO
Viento: SO 13 km/h, Racha: 35 km/h
Temperatura: 10°C
Wind Chill: 8°C
Rocío: 3°C
Humedad: 62%
Barómetro: 1007 hPa
Nubes: Cubierto
Visibilidad: 10 km
Detalle de Nubes: Cubierto 1524 m
2019/01/23 18:00 LECV 231800Z 23007G19KT 170V310 9999 OVC050 10/03 Q1007
LETO - Madrid / Torrejon
Distancia desde la estación: SSO 45km
Actualización: 23/01/2019 23:00
Poco nuboso
Poco nuboso
 Viento del SO
Viento: SO 6 km/h
Temperatura: 9°C
Rocío: 4°C
Humedad: 71%
Barómetro: 1007 hPa
Nubes: Poco nuboso
Visibilidad: 10 km
Detalle de Nubes: Poco nuboso 1524 m
2019/01/23 22:00 LETO 232200Z 22003KT 9999 FEW050 09/04 Q1007 NOSIG
 
LEVS - Madrid / Cuatro vientos
Distancia desde la estación: SO 70km
Actualización: 23/01/2019 20:00
NO actualizado
Parcialmente nuboso
Parcialmente nuboso
 Viento del ONO
Viento: ONO 41 km/h, Racha: 70 km/h
Temperatura: 13°C
Rocío: 4°C
Humedad: 55%
Barómetro: 1007 hPa
Nubes: Parcialmente nuboso
Visibilidad: 10 km
Detalle de Nubes: Parcialmente nuboso 1494 m
2019/01/23 19:00 LEVS 231900Z 30022G38KT 260V350 9999 SCT049 13/04 Q1007
LEGT - Madrid / Getafe
Distancia desde la estación: SSO 74km
Actualización: 23/01/2019 20:00
NO actualizado
Muy nuboso
Muy nuboso
 Viento del SO
Viento: SO 24 km/h
Temperatura: 13°C
Rocío: 5°C
Humedad: 59%
Barómetro: 1008 hPa
Nubes: Muy nuboso
Visibilidad: 10 km
Detalle de Nubes: Muy nuboso 1433 m
2019/01/23 19:00 LEGT 231900Z 23013KT 9999 BKN047 13/05 Q1008
LEBL - Barcelona / Aeropuerto
Distancia desde la estación: E 447km
Actualización: 23/01/2019 23:30
Poco nuboso
Poco nuboso
 Viento del N
Viento: N 9 km/h
Temperatura: 7°C
Wind Chill: 6°C
Rocío: 0°C
Humedad: 61%
Barómetro: 999 hPa
Nubes: Poco nuboso
Visibilidad: 10 km
Detalle de Nubes: Poco nuboso 1524 m
2019/01/23 22:30 LEBL 232230Z 36005KT 9999 FEW050 07/M00 Q0999 NOSIG
 
LEVC - Valencia /Aeropuerto
Distancia desde la estación: ESE 280km
Actualización: 23/01/2019 23:30
Poco nuboso
Poco nuboso
 Viento del ONO
Viento: ONO 15 km/h
Temperatura: 16°C
Rocío: 3°C
Humedad: 42%
Barómetro: 1001 hPa
Nubes: Poco nuboso
Visibilidad: 10 km
Detalle de Nubes: Poco nuboso 1219 m
2019/01/23 22:30 LEVC 232230Z 29008KT 260V330 9999 FEW040 16/03 Q1001 NOSIG
LEZG - Zaragoza / Aeropuerto
Distancia desde la estación: ENE 206km
Actualización: 23/01/2019 23:30
Light drizzle, Muy nuboso
Light drizzle, Muy nuboso
 Viento del NO
Viento: NO 37 km/h, Racha: 61 km/h
Temperatura: 8°C
Wind Chill: 3°C
Rocío: 5°C
Humedad: 82%
Barómetro: 1004 hPa
Resumen: Light Drizzle
Nubes: Muy nuboso
Visibilidad: 10 km
Detalle de Nubes: Poco nuboso 1067 m
Muy nuboso 2134 m
2019/01/23 22:30 LEZG 232230Z 31020G33KT 9999 -DZ FEW035 BKN070 08/05 Q1004
LEGR - Granada / Aeropuerto
Distancia desde la estación: S 411km
Actualización: 23/01/2019 23:30
Cubierto
Cubierto
 Viento del ONO
Viento: ONO 13 km/h
Temperatura: 10°C
Wind Chill: 8°C
Rocío: 7°C
Humedad: 82%
Barómetro: 1013 hPa
Nubes: Cubierto
Visibilidad: 10 km
Detalle de Nubes: Muy nuboso 975 m
Cubierto 1219 m
2019/01/23 22:30 LEGR 232230Z AUTO 29007KT 260V320 9999 BKN032/// OVC040/// 10/07 Q1013